createdAt,value
2023-04-13T00:00:36.766Z,3.20
2023-04-13T00:03:04.483Z,2.28
2023-04-13T00:05:31.598Z,4.20
2023-04-13T00:08:02.983Z,2.80
2023-04-13T00:10:37.065Z,3.53
2023-04-13T00:13:05.104Z,2.15
2023-04-13T00:15:34.660Z,2.72
2023-04-13T00:18:03.306Z,2.05
2023-04-13T00:20:30.538Z,2.55
2023-04-13T00:22:57.344Z,3.00
2023-04-13T00:25:24.141Z,3.15
2023-04-13T00:27:52.931Z,2.70
2023-04-13T00:30:21.268Z,2.47
2023-04-13T00:32:48.462Z,2.30
2023-04-13T00:35:25.124Z,1.98
2023-04-13T00:37:53.302Z,2.20
2023-04-13T00:40:20.322Z,3.08
2023-04-13T00:42:48.965Z,1.52
2023-04-13T00:45:18.177Z,1.73
2023-04-13T00:47:46.997Z,2.28
2023-04-13T00:50:18.446Z,1.92
2023-04-13T00:52:47.125Z,1.23
2023-04-13T00:55:14.906Z,1.70
2023-04-13T00:57:41.825Z,1.50
2023-04-13T01:00:09.700Z,1.80
2023-04-13T01:02:41.716Z,1.47
2023-04-13T01:05:12.597Z,2.20
2023-04-13T01:07:56.283Z,1.27
2023-04-13T01:10:29.094Z,1.83
2023-04-13T01:13:17.718Z,1.63
2023-04-13T01:16:03.787Z,2.33
2023-04-13T01:18:38.378Z,1.48
2023-04-13T01:21:10.188Z,1.10
2023-04-13T01:24:29.668Z,0.97
2023-04-13T01:27:13.002Z,0.63
2023-04-13T01:29:40.198Z,0.80
2023-04-13T01:32:08.867Z,0.93
2023-04-13T01:34:37.137Z,1.20
2023-04-13T01:37:08.085Z,1.10
2023-04-13T01:39:37.182Z,1.77
2023-04-13T01:42:13.535Z,1.42
2023-04-13T01:44:40.498Z,0.93
2023-04-13T01:47:23.717Z,1.05
2023-04-13T01:50:12.184Z,0.50
2023-04-13T01:52:54.407Z,1.13
2023-04-13T01:55:23.959Z,3.07
2023-04-13T01:57:56.788Z,1.30
2023-04-13T02:00:31.650Z,1.42
2023-04-13T02:02:58.629Z,0.95
2023-04-13T02:05:25.527Z,1.13
2023-04-13T02:07:52.537Z,0.68
2023-04-13T02:10:20.007Z,0.87
2023-04-13T02:12:47.697Z,1.00
2023-04-13T02:15:14.557Z,0.93
2023-04-13T02:17:41.826Z,1.20
2023-04-13T02:20:11.218Z,1.85
2023-04-13T02:22:39.370Z,1.17
2023-04-13T02:25:08.611Z,1.02
2023-04-13T02:27:35.763Z,1.23
2023-04-13T02:30:02.595Z,1.03
2023-04-13T02:32:31.522Z,1.15
2023-04-13T02:35:01.935Z,0.80
2023-04-13T02:37:32.406Z,0.93
2023-04-13T02:39:59.937Z,1.77
2023-04-13T02:42:27.892Z,0.77
2023-04-13T02:44:55.142Z,1.30
2023-04-13T02:47:22.826Z,1.20
2023-04-13T02:49:49.721Z,1.40
2023-04-13T02:52:24.309Z,1.60
2023-04-13T02:54:58.111Z,1.80
2023-04-13T02:57:29.632Z,1.00
2023-04-13T02:59:58.070Z,1.50
2023-04-13T03:02:30.052Z,1.15
2023-04-13T03:04:57.725Z,1.50
2023-04-13T03:07:28.010Z,1.45
2023-04-13T03:09:55.311Z,0.82
2023-04-13T03:12:22.025Z,1.43
2023-04-13T03:14:51.509Z,1.00
2023-04-13T03:17:20.909Z,1.50
2023-04-13T03:19:49.157Z,1.13
2023-04-13T03:22:17.504Z,1.60
2023-04-13T03:24:46.394Z,0.95
2023-04-13T03:27:22.636Z,1.02
2023-04-13T03:29:51.010Z,0.68
2023-04-13T03:32:21.791Z,1.25
2023-04-13T03:34:52.588Z,1.07
2023-04-13T03:37:19.784Z,2.13
2023-04-13T03:39:47.138Z,1.52
2023-04-13T03:42:18.000Z,1.23
2023-04-13T03:44:52.483Z,1.30
2023-04-13T03:47:19.642Z,1.02
2023-04-13T03:49:46.983Z,1.50
2023-04-13T03:52:14.081Z,1.70
2023-04-13T03:54:48.157Z,1.40
2023-04-13T03:57:15.694Z,2.15
2023-04-13T03:59:43.251Z,1.65
2023-04-13T04:02:13.253Z,1.75
2023-04-13T04:04:41.480Z,0.82
2023-04-13T04:07:08.515Z,2.70
2023-04-13T04:09:35.856Z,1.23
2023-04-13T04:12:03.657Z,2.40
2023-04-13T04:14:41.820Z,1.63
2023-04-13T04:17:14.818Z,1.50
2023-04-13T04:19:41.952Z,1.83
2023-04-13T04:22:10.007Z,2.90
2023-04-13T04:24:40.138Z,2.47
2023-04-13T04:27:07.645Z,2.77
2023-04-13T04:29:34.736Z,1.75
2023-04-13T04:32:18.535Z,2.45
2023-04-13T04:34:46.714Z,4.47
2023-04-13T04:37:21.199Z,2.17
2023-04-13T04:40:00.021Z,2.25
2023-04-13T04:42:27.208Z,2.53
2023-04-13T04:44:56.454Z,2.17
2023-04-13T04:47:24.429Z,2.80
2023-04-13T04:50:06.551Z,3.47
2023-04-13T04:52:38.633Z,1.83
2023-04-13T04:55:06.392Z,2.28
2023-04-13T04:57:34.494Z,1.92
2023-04-13T05:00:10.113Z,3.67
2023-04-13T05:02:38.814Z,1.98
2023-04-13T05:05:11.680Z,1.75
2023-04-13T05:07:39.701Z,2.83
2023-04-13T05:10:09.146Z,2.03
2023-04-13T05:12:39.658Z,5.90
2023-04-13T05:15:07.982Z,4.13
2023-04-13T05:17:36.883Z,4.68
2023-04-13T05:20:06.899Z,4.72
2023-04-13T05:22:43.538Z,4.65
2023-04-13T05:25:11.763Z,4.45
2023-04-13T05:27:39.209Z,2.75
2023-04-13T05:30:06.872Z,3.55
2023-04-13T05:32:36.522Z,3.57
2023-04-13T05:35:04.425Z,4.80
2023-04-13T05:37:32.589Z,3.78
2023-04-13T05:40:00.389Z,4.10
2023-04-13T05:42:31.530Z,4.55
2023-04-13T05:44:59.192Z,4.18
2023-04-13T05:47:28.572Z,2.15
2023-04-13T05:50:00.042Z,2.60
2023-04-13T05:52:27.118Z,4.03
2023-04-13T05:54:54.658Z,3.15
2023-04-13T05:57:23.053Z,3.55
2023-04-13T05:59:53.338Z,3.28
2023-04-13T06:02:26.330Z,2.60
2023-04-13T06:04:55.447Z,4.47
2023-04-13T06:07:23.120Z,3.42
2023-04-13T06:09:49.843Z,3.03
2023-04-13T06:12:18.202Z,3.67
2023-04-13T06:14:45.907Z,3.80
2023-04-13T06:17:12.600Z,3.63
2023-04-13T06:19:39.415Z,3.53
2023-04-13T06:22:06.947Z,4.85
2023-04-13T06:24:37.363Z,4.50
2023-04-13T06:27:04.845Z,3.00
2023-04-13T06:29:32.309Z,1.70
2023-04-13T06:32:06.572Z,4.57
2023-04-13T06:34:35.447Z,3.17
2023-04-13T06:37:02.982Z,4.00
2023-04-13T06:39:37.492Z,2.90
2023-04-13T06:42:07.088Z,3.87
2023-04-13T06:44:52.889Z,4.03
2023-04-13T06:47:20.962Z,3.97
2023-04-13T06:49:48.417Z,4.03
2023-04-13T06:52:16.330Z,5.05
2023-04-13T06:54:43.051Z,3.43
2023-04-13T06:57:21.869Z,4.55
2023-04-13T06:59:48.638Z,4.93
2023-04-13T07:02:17.639Z,4.70
2023-04-13T07:04:44.981Z,4.20
2023-04-13T07:07:12.057Z,4.47
2023-04-13T07:09:38.745Z,4.50
2023-04-13T07:12:07.203Z,5.20
2023-04-13T07:14:38.182Z,2.95
2023-04-13T07:17:06.549Z,3.03
2023-04-13T07:19:35.231Z,3.87
2023-04-13T07:22:02.613Z,3.30
2023-04-13T07:24:33.739Z,3.88
2023-04-13T07:27:03.236Z,3.28
2023-04-13T07:29:30.737Z,2.83
2023-04-13T07:32:05.963Z,3.58
2023-04-13T07:34:34.743Z,3.95
2023-04-13T07:37:01.484Z,4.35
2023-04-13T07:39:28.290Z,3.97
2023-04-13T07:41:57.093Z,3.95
2023-04-13T07:44:36.352Z,3.00
2023-04-13T07:47:03.893Z,3.67
2023-04-13T07:49:32.649Z,3.10
2023-04-13T07:52:00.291Z,3.65
2023-04-13T07:54:34.972Z,3.80
2023-04-13T07:57:02.942Z,2.85
2023-04-13T07:59:32.010Z,8.75
2023-04-13T08:01:59.510Z,3.38
2023-04-13T08:04:28.370Z,3.65
2023-04-13T08:06:55.306Z,6.05
2023-04-13T08:09:23.013Z,5.82
2023-04-13T08:11:50.017Z,4.50
2023-04-13T08:14:17.250Z,4.10
2023-04-13T08:16:44.281Z,6.55
2023-04-13T08:19:11.194Z,7.65
2023-04-13T08:21:43.074Z,6.80
2023-04-13T08:24:09.881Z,6.43
2023-04-13T08:26:36.809Z,3.65
2023-04-13T08:29:03.831Z,8.73
2023-04-13T08:31:32.314Z,8.00
2023-04-13T08:34:04.564Z,5.30
2023-04-13T08:36:31.774Z,6.68
2023-04-13T08:39:05.956Z,7.38
2023-04-13T08:41:41.864Z,7.77
2023-04-13T08:44:11.746Z,6.03
2023-04-13T08:46:42.626Z,5.68
2023-04-13T08:49:11.226Z,5.75
2023-04-13T08:51:59.456Z,5.90
2023-04-13T08:54:28.424Z,5.75
2023-04-13T08:56:57.672Z,4.70
2023-04-13T08:59:29.625Z,8.33
2023-04-13T09:01:58.154Z,5.03
2023-04-13T09:04:35.582Z,5.38
2023-04-13T09:07:04.609Z,7.45
2023-04-13T09:09:38.142Z,8.20
2023-04-13T09:12:08.894Z,5.88
2023-04-13T09:14:38.312Z,8.23
2023-04-13T09:17:06.877Z,4.93
2023-04-13T09:19:38.132Z,6.78
2023-04-13T09:22:14.988Z,8.52
2023-04-13T09:24:42.661Z,8.10
2023-04-13T09:27:20.275Z,5.82
2023-04-13T09:29:54.698Z,7.65
2023-04-13T09:32:23.672Z,8.05
2023-04-13T09:35:04.919Z,5.78
2023-04-13T09:37:32.782Z,4.13
2023-04-13T09:40:14.169Z,6.07
2023-04-13T09:43:02.571Z,8.05
2023-04-13T09:45:44.347Z,3.60
2023-04-13T09:48:22.007Z,8.32
2023-04-13T09:51:02.081Z,5.82
2023-04-13T09:53:42.306Z,6.72
2023-04-13T09:56:09.629Z,3.65
2023-04-13T09:58:47.196Z,4.68
2023-04-13T10:01:17.355Z,4.30
2023-04-13T10:03:44.941Z,4.75
2023-04-13T10:06:12.735Z,4.45
2023-04-13T10:08:42.647Z,4.80
2023-04-13T10:11:13.166Z,3.90
2023-04-13T10:13:53.945Z,4.13
2023-04-13T10:16:36.485Z,4.28
2023-04-13T10:19:09.412Z,3.05
2023-04-13T10:21:39.890Z,3.20
2023-04-13T10:24:12.251Z,2.87
2023-04-13T10:26:45.402Z,5.22
2023-04-13T10:29:14.400Z,4.57
2023-04-13T10:31:42.697Z,3.27
2023-04-13T10:34:22.152Z,5.10
2023-04-13T10:36:51.480Z,2.92
2023-04-13T10:39:29.355Z,5.70
2023-04-13T10:42:06.459Z,1.95
2023-04-13T10:44:41.649Z,1.98
2023-04-13T10:47:13.252Z,5.23
2023-04-13T10:49:41.021Z,3.88
2023-04-13T10:52:12.042Z,4.18
2023-04-13T10:54:40.644Z,3.40
2023-04-13T10:57:09.563Z,3.60
2023-04-13T10:59:56.165Z,3.20
2023-04-13T11:02:31.919Z,3.67
2023-04-13T11:05:00.402Z,3.03
2023-04-13T11:07:28.426Z,3.15
2023-04-13T11:12:28.486Z,2.90
2023-04-13T11:14:55.367Z,3.95
2023-04-13T11:17:22.586Z,2.88
2023-04-13T11:19:51.834Z,2.80
2023-04-13T11:22:27.715Z,2.75
2023-04-13T11:25:06.745Z,2.45
2023-04-13T11:27:33.548Z,3.47
2023-04-13T11:30:13.194Z,3.67
2023-04-13T11:32:43.423Z,2.38
2023-04-13T11:35:13.761Z,2.88
2023-04-13T11:37:43.129Z,3.60
2023-04-13T11:40:20.156Z,2.20
2023-04-13T11:42:55.831Z,3.20
2023-04-13T11:45:26.721Z,3.10
2023-04-13T11:47:55.239Z,3.05
2023-04-13T11:50:22.835Z,3.42
2023-04-13T11:52:56.276Z,2.60
2023-04-13T11:55:24.322Z,3.63
2023-04-13T11:57:52.942Z,3.35
2023-04-13T12:00:27.058Z,3.53
2023-04-13T12:05:28.764Z,2.28
2023-04-13T12:07:58.459Z,3.53
2023-04-13T12:13:20.241Z,4.13
2023-04-13T12:16:07.348Z,3.30
2023-04-13T12:18:47.580Z,4.18
2023-04-13T12:21:19.965Z,2.97
2023-04-13T12:24:01.367Z,5.38
2023-04-13T12:29:07.875Z,4.80
2023-04-13T12:31:36.383Z,2.67
2023-04-13T12:34:07.735Z,3.45
2023-04-13T12:36:36.277Z,3.47
2023-04-13T12:39:06.966Z,2.70
2023-04-13T12:41:33.818Z,3.15
2023-04-13T12:44:01.266Z,3.95
2023-04-13T12:46:29.320Z,3.95
2023-04-13T12:48:56.308Z,3.77
2023-04-13T12:51:23.165Z,4.72
2023-04-13T12:53:49.856Z,6.22
2023-04-13T12:56:16.673Z,3.67
2023-04-13T12:58:43.478Z,4.82
2023-04-13T13:01:13.939Z,4.22
2023-04-13T13:03:41.878Z,4.47
2023-04-13T13:06:09.052Z,7.25
2023-04-13T13:08:39.380Z,3.55
2023-04-13T13:11:08.186Z,3.40
2023-04-13T13:13:35.111Z,3.60
2023-04-13T13:16:01.859Z,3.47
2023-04-13T13:18:39.051Z,3.53
2023-04-13T13:21:13.774Z,3.05
2023-04-13T13:23:40.468Z,3.60
2023-04-13T13:28:42.628Z,3.67
2023-04-13T13:31:09.373Z,3.05
2023-04-13T13:33:36.636Z,3.87
2023-04-13T13:36:03.527Z,3.22
2023-04-13T13:38:31.428Z,2.95
2023-04-13T13:40:58.241Z,4.80
2023-04-13T13:43:24.951Z,2.57
2023-04-13T13:45:51.691Z,4.32
2023-04-13T13:48:18.930Z,5.33
2023-04-13T13:50:55.812Z,2.78
2023-04-13T13:53:23.794Z,4.20
2023-04-13T13:55:50.930Z,3.30
2023-04-13T13:58:17.700Z,3.00
2023-04-13T14:00:44.748Z,3.70
2023-04-13T14:03:13.636Z,3.55
2023-04-13T14:05:40.442Z,3.43
2023-04-13T14:08:07.423Z,3.28
2023-04-13T14:10:35.584Z,3.28
2023-04-13T14:13:02.623Z,4.60
2023-04-13T14:15:29.603Z,2.83
2023-04-13T14:20:29.111Z,4.25
2023-04-13T14:22:57.381Z,2.45
2023-04-13T14:25:24.184Z,3.10
2023-04-13T14:27:51.285Z,3.65
2023-04-13T14:30:18.423Z,3.25
2023-04-13T14:32:52.052Z,2.38
2023-04-13T14:35:20.050Z,3.97
2023-04-13T14:37:47.502Z,3.50
2023-04-13T14:40:16.802Z,3.23
2023-04-13T14:42:43.717Z,3.10
2023-04-13T14:45:12.248Z,2.65
2023-04-13T14:47:39.958Z,4.88
2023-04-13T14:50:08.266Z,3.22
2023-04-13T14:52:35.447Z,3.42
2023-04-13T14:55:02.595Z,4.10
2023-04-13T14:57:29.581Z,4.15
2023-04-13T14:59:56.699Z,3.08
2023-04-13T15:02:24.171Z,2.38
2023-04-13T15:04:51.359Z,2.35
2023-04-13T15:07:21.542Z,3.95
2023-04-13T15:09:48.914Z,3.20
2023-04-13T15:12:15.685Z,4.70
2023-04-13T15:14:46.502Z,4.53
2023-04-13T15:17:13.490Z,5.38
2023-04-13T15:19:40.515Z,5.03
2023-04-13T15:22:07.240Z,2.72
2023-04-13T15:24:33.981Z,7.10
2023-04-13T15:27:00.830Z,3.93
2023-04-13T15:29:27.832Z,4.30
2023-04-13T15:31:54.657Z,3.27
2023-04-13T15:34:21.407Z,3.53
2023-04-13T15:36:48.141Z,3.85
2023-04-13T15:39:14.861Z,4.18
2023-04-13T15:41:41.586Z,3.87
2023-04-13T15:44:08.372Z,5.82
2023-04-13T15:46:35.408Z,3.97
2023-04-13T15:49:02.747Z,5.00
2023-04-13T15:51:29.676Z,3.73
2023-04-13T15:53:56.389Z,3.47
2023-04-13T15:56:23.151Z,3.55
2023-04-13T15:58:50.339Z,4.78
2023-04-13T16:01:17.576Z,3.65
2023-04-13T16:03:45.136Z,4.57
2023-04-13T16:06:12.091Z,3.70
2023-04-13T16:08:39.193Z,2.63
2023-04-13T16:11:06.431Z,3.22
2023-04-13T16:13:48.010Z,4.40
2023-04-13T16:16:16.673Z,3.30
2023-04-13T16:18:43.487Z,3.20
2023-04-13T16:21:12.254Z,5.13
2023-04-13T16:23:39.034Z,3.80
2023-04-13T16:26:06.275Z,2.97
2023-04-13T16:28:34.446Z,2.33
2023-04-13T16:31:01.421Z,3.80
2023-04-13T16:33:29.672Z,3.35
2023-04-13T16:35:56.413Z,2.63
2023-04-13T16:38:23.114Z,1.95
2023-04-13T16:40:49.916Z,2.92
2023-04-13T16:43:16.658Z,2.42
2023-04-13T16:45:43.828Z,2.58
2023-04-13T16:48:10.834Z,2.45
2023-04-13T16:50:37.740Z,2.38
2023-04-13T16:53:04.499Z,2.17
2023-04-13T16:55:31.423Z,2.03
2023-04-13T16:57:58.328Z,2.33
2023-04-13T17:00:25.164Z,2.67
2023-04-13T17:02:52.050Z,3.42
2023-04-13T17:05:18.914Z,3.03
2023-04-13T17:07:48.053Z,2.33
2023-04-13T17:10:15.014Z,1.88
2023-04-13T17:12:42.230Z,2.55
2023-04-13T17:15:09.968Z,4.72
2023-04-13T17:17:38.199Z,6.35
2023-04-13T17:20:06.186Z,6.45
2023-04-13T17:22:32.961Z,4.20
2023-04-13T17:24:59.794Z,4.93
2023-04-13T17:27:26.647Z,4.03
2023-04-13T17:29:53.369Z,3.13
2023-04-13T17:32:21.614Z,3.97
2023-04-13T17:34:49.362Z,5.97
2023-04-13T17:37:17.442Z,4.38
2023-04-13T17:39:47.481Z,5.95
2023-04-13T17:42:15.024Z,2.00
2023-04-13T17:44:42.438Z,3.38
2023-04-13T17:47:09.840Z,4.72
2023-04-13T17:49:37.715Z,4.43
2023-04-13T17:52:04.730Z,4.45
2023-04-13T17:54:31.650Z,2.60
2023-04-13T17:56:58.386Z,3.45
2023-04-13T17:59:26.232Z,2.88
2023-04-13T18:01:53.274Z,2.43
2023-04-13T18:04:20.357Z,2.50
2023-04-13T18:06:47.336Z,3.38
2023-04-13T18:09:14.237Z,2.97
2023-04-13T18:11:41.201Z,2.77
2023-04-13T18:14:09.018Z,3.25
2023-04-13T18:16:36.506Z,3.70
2023-04-13T18:19:03.920Z,3.05
2023-04-13T18:21:32.335Z,3.70
2023-04-13T18:24:01.336Z,2.85
2023-04-13T18:26:28.839Z,1.75
2023-04-13T18:28:55.680Z,3.50
2023-04-13T18:31:22.791Z,3.67
2023-04-13T18:33:49.611Z,3.97
2023-04-13T18:36:17.392Z,3.55
2023-04-13T18:38:45.071Z,2.00
2023-04-13T18:41:11.960Z,2.22
2023-04-13T18:43:39.455Z,3.85
2023-04-13T18:46:07.474Z,1.55
2023-04-13T18:48:34.628Z,2.60
2023-04-13T18:51:02.816Z,3.55
2023-04-13T18:53:29.550Z,3.67
2023-04-13T18:55:58.568Z,4.10
2023-04-13T18:58:26.225Z,2.80
2023-04-13T19:00:53.059Z,2.10
2023-04-13T19:03:20.024Z,2.10
2023-04-13T19:05:47.172Z,1.97
2023-04-13T19:08:15.509Z,2.10
2023-04-13T19:10:42.761Z,3.13
2023-04-13T19:13:09.540Z,3.22
2023-04-13T19:15:36.428Z,3.63
2023-04-13T19:18:04.314Z,2.77
2023-04-13T19:20:31.497Z,2.97
2023-04-13T19:22:58.433Z,2.47
2023-04-13T19:25:25.628Z,4.28
2023-04-13T19:27:52.444Z,3.03
2023-04-13T19:30:19.639Z,3.28
2023-04-13T19:32:48.837Z,3.25
2023-04-13T19:35:16.021Z,5.63
2023-04-13T19:37:42.821Z,4.07
2023-04-13T19:40:10.021Z,4.00
2023-04-13T19:42:37.548Z,4.57
2023-04-13T19:45:04.936Z,5.28
2023-04-13T19:47:32.012Z,4.07
2023-04-13T19:49:59.305Z,4.13
2023-04-13T19:52:26.311Z,3.73
2023-04-13T19:54:53.084Z,3.78
2023-04-13T19:57:19.858Z,3.42
2023-04-13T19:59:46.655Z,4.93
2023-04-13T20:02:13.520Z,2.45
2023-04-13T20:04:40.643Z,2.60
2023-04-13T20:07:07.846Z,3.70
2023-04-13T20:09:34.726Z,3.95
2023-04-13T20:12:01.839Z,3.35
2023-04-13T20:14:28.604Z,4.22
2023-04-13T20:16:55.597Z,2.67
2023-04-13T20:19:24.184Z,3.47
2023-04-13T20:21:51.683Z,2.73
2023-04-13T20:24:18.593Z,3.30
2023-04-13T20:26:45.694Z,4.53
2023-04-13T20:29:12.838Z,2.90
2023-04-13T20:31:40.667Z,3.22
2023-04-13T20:34:09.523Z,3.15
2023-04-13T20:36:36.447Z,2.85
2023-04-13T20:39:03.312Z,3.40
2023-04-13T20:41:31.749Z,4.78
2023-04-13T20:43:59.531Z,3.08
2023-04-13T20:46:34.026Z,2.95
2023-04-13T20:49:02.548Z,3.10
2023-04-13T20:51:32.889Z,3.97
2023-04-13T20:54:01.547Z,3.65
2023-04-13T20:56:29.810Z,2.55
2023-04-13T20:58:57.880Z,3.00
2023-04-13T21:01:25.362Z,2.35
2023-04-13T21:03:52.893Z,3.10
2023-04-13T21:06:20.023Z,2.97
2023-04-13T21:08:46.775Z,3.83
2023-04-13T21:11:13.543Z,3.15
2023-04-13T21:13:41.292Z,6.63
2023-04-13T21:16:08.967Z,3.67
2023-04-13T21:18:36.637Z,1.45
2023-04-13T21:21:06.110Z,3.60
2023-04-13T21:23:33.024Z,3.92
2023-04-13T21:25:59.778Z,2.92
2023-04-13T21:28:26.557Z,3.45
2023-04-13T21:30:53.321Z,2.63
2023-04-13T21:33:20.182Z,3.63
2023-04-13T21:35:46.942Z,3.70
2023-04-13T21:38:13.752Z,2.92
2023-04-13T21:40:40.926Z,4.10
2023-04-13T21:43:07.718Z,2.70
2023-04-13T21:45:34.778Z,2.42
2023-04-13T21:48:01.606Z,2.22
2023-04-13T21:50:28.376Z,4.57
2023-04-13T21:52:55.108Z,3.08
2023-04-13T21:55:21.996Z,2.97
2023-04-13T21:57:49.297Z,4.90
2023-04-13T22:00:17.899Z,2.50
2023-04-13T22:02:44.717Z,2.92
2023-04-13T22:05:12.129Z,4.15
2023-04-13T22:07:43.305Z,2.97
2023-04-13T22:10:10.938Z,3.47
2023-04-13T22:12:37.972Z,3.33
2023-04-13T22:15:05.274Z,2.60
2023-04-13T22:17:32.248Z,2.53
2023-04-13T22:19:59.100Z,4.45
2023-04-13T22:22:26.951Z,2.70
2023-04-13T22:24:54.024Z,2.60
2023-04-13T22:27:21.630Z,4.73
2023-04-13T22:29:48.399Z,2.33
2023-04-13T22:32:16.433Z,2.80
2023-04-13T22:34:43.144Z,3.67
2023-04-13T22:37:12.139Z,4.90
2023-04-13T22:39:39.264Z,4.53
2023-04-13T22:42:07.110Z,3.70
2023-04-13T22:44:34.439Z,3.22
2023-04-13T22:47:02.432Z,2.42
2023-04-13T22:49:29.824Z,1.98
2023-04-13T22:51:56.759Z,3.75
2023-04-13T22:54:23.998Z,2.90
2023-04-13T22:56:51.163Z,3.00
2023-04-13T22:59:18.213Z,1.67
2023-04-13T23:01:46.367Z,2.55
2023-04-13T23:04:15.701Z,2.43
2023-04-13T23:06:42.881Z,1.90
2023-04-13T23:09:09.673Z,2.22
2023-04-13T23:11:36.470Z,2.00
2023-04-13T23:14:03.329Z,2.60
2023-04-13T23:16:30.478Z,2.40
2023-04-13T23:18:57.646Z,2.47
2023-04-13T23:21:24.532Z,2.30
2023-04-13T23:23:51.256Z,1.83
2023-04-13T23:26:19.054Z,2.22
2023-04-13T23:28:48.762Z,1.40
2023-04-13T23:31:15.796Z,2.00
2023-04-13T23:33:42.574Z,1.83
2023-04-13T23:36:09.773Z,1.50
2023-04-13T23:38:36.752Z,2.42
2023-04-13T23:41:03.560Z,2.60
2023-04-13T23:43:30.341Z,1.80
2023-04-13T23:45:58.683Z,1.40
2023-04-13T23:48:26.934Z,1.90
2023-04-13T23:50:53.972Z,2.97
2023-04-13T23:53:20.811Z,1.30
2023-04-13T23:55:47.773Z,1.92
2023-04-13T23:58:14.586Z,2.00
